sensor_id;sensor_type;location;lat;lon;timestamp;P1;durP1;ratioP1;P2;durP2;ratioP2
53505;SDS011;39388;50.936;6.848;2023-01-29T00:00:42;46.42;;;26.17;;
53505;SDS011;39388;50.936;6.848;2023-01-29T00:03:14;41.97;;;26.70;;
53505;SDS011;39388;50.936;6.848;2023-01-29T00:05:45;45.15;;;26.38;;
53505;SDS011;39388;50.936;6.848;2023-01-29T00:08:15;47.47;;;26.63;;
53505;SDS011;39388;50.936;6.848;2023-01-29T00:10:45;47.72;;;28.08;;
53505;SDS011;39388;50.936;6.848;2023-01-29T00:13:16;43.25;;;25.85;;
53505;SDS011;39388;50.936;6.848;2023-01-29T00:15:53;46.25;;;27.48;;
53505;SDS011;39388;50.936;6.848;2023-01-29T00:18:25;44.85;;;26.70;;
53505;SDS011;39388;50.936;6.848;2023-01-29T00:20:56;43.47;;;26.85;;
53505;SDS011;39388;50.936;6.848;2023-01-29T00:23:27;44.17;;;25.35;;
53505;SDS011;39388;50.936;6.848;2023-01-29T00:25:58;37.88;;;24.00;;
53505;SDS011;39388;50.936;6.848;2023-01-29T00:28:29;44.63;;;26.00;;
53505;SDS011;39388;50.936;6.848;2023-01-29T00:31:06;44.00;;;25.63;;
53505;SDS011;39388;50.936;6.848;2023-01-29T00:33:41;42.22;;;25.17;;
53505;SDS011;39388;50.936;6.848;2023-01-29T00:36:12;45.10;;;25.10;;
53505;SDS011;39388;50.936;6.848;2023-01-29T00:38:43;47.97;;;25.83;;
53505;SDS011;39388;50.936;6.848;2023-01-29T00:41:26;40.83;;;24.63;;
53505;SDS011;39388;50.936;6.848;2023-01-29T00:44:20;40.72;;;25.38;;
53505;SDS011;39388;50.936;6.848;2023-01-29T00:47:09;47.58;;;26.27;;
53505;SDS011;39388;50.936;6.848;2023-01-29T00:50:01;43.13;;;25.40;;
53505;SDS011;39388;50.936;6.848;2023-01-29T00:52:34;41.90;;;24.67;;
53505;SDS011;39388;50.936;6.848;2023-01-29T00:55:06;43.10;;;24.70;;
53505;SDS011;39388;50.936;6.848;2023-01-29T00:57:37;43.38;;;24.92;;
53505;SDS011;39388;50.936;6.848;2023-01-29T01:00:09;40.13;;;25.08;;
53505;SDS011;39388;50.936;6.848;2023-01-29T01:02:42;42.35;;;23.70;;
53505;SDS011;39388;50.936;6.848;2023-01-29T01:05:31;42.10;;;25.05;;
53505;SDS011;39388;50.936;6.848;2023-01-29T01:08:02;42.38;;;25.00;;
53505;SDS011;39388;50.936;6.848;2023-01-29T01:10:32;47.05;;;25.80;;
53505;SDS011;39388;50.936;6.848;2023-01-29T01:13:04;43.22;;;24.50;;
53505;SDS011;39388;50.936;6.848;2023-01-29T01:15:36;41.72;;;25.00;;
53505;SDS011;39388;50.936;6.848;2023-01-29T01:20:41;47.72;;;24.70;;
53505;SDS011;39388;50.936;6.848;2023-01-29T01:23:12;43.63;;;25.67;;
53505;SDS011;39388;50.936;6.848;2023-01-29T01:25:43;40.97;;;25.30;;
53505;SDS011;39388;50.936;6.848;2023-01-29T01:28:13;42.17;;;24.35;;
53505;SDS011;39388;50.936;6.848;2023-01-29T01:30:43;42.33;;;24.65;;
53505;SDS011;39388;50.936;6.848;2023-01-29T01:33:14;42.67;;;25.00;;
53505;SDS011;39388;50.936;6.848;2023-01-29T01:35:44;42.00;;;23.73;;
53505;SDS011;39388;50.936;6.848;2023-01-29T01:38:15;40.65;;;23.20;;
53505;SDS011;39388;50.936;6.848;2023-01-29T01:40:45;44.38;;;25.92;;
53505;SDS011;39388;50.936;6.848;2023-01-29T01:43:15;43.58;;;25.25;;
53505;SDS011;39388;50.936;6.848;2023-01-29T01:45:46;44.92;;;26.17;;
53505;SDS011;39388;50.936;6.848;2023-01-29T01:50:57;40.35;;;24.50;;
53505;SDS011;39388;50.936;6.848;2023-01-29T01:56:37;40.40;;;25.13;;
53505;SDS011;39388;50.936;6.848;2023-01-29T01:59:14;42.60;;;23.98;;
53505;SDS011;39388;50.936;6.848;2023-01-29T02:01:48;38.63;;;24.58;;
53505;SDS011;39388;50.936;6.848;2023-01-29T02:04:23;42.90;;;25.52;;
53505;SDS011;39388;50.936;6.848;2023-01-29T02:07:14;44.53;;;25.05;;
53505;SDS011;39388;50.936;6.848;2023-01-29T02:10:11;43.83;;;24.83;;
53505;SDS011;39388;50.936;6.848;2023-01-29T02:12:44;40.95;;;25.20;;
53505;SDS011;39388;50.936;6.848;2023-01-29T02:15:15;42.55;;;25.95;;
53505;SDS011;39388;50.936;6.848;2023-01-29T02:17:46;40.17;;;24.70;;
53505;SDS011;39388;50.936;6.848;2023-01-29T02:20:18;40.20;;;24.48;;
53505;SDS011;39388;50.936;6.848;2023-01-29T02:28:44;41.88;;;24.33;;
53505;SDS011;39388;50.936;6.848;2023-01-29T02:31:30;43.45;;;24.60;;
53505;SDS011;39388;50.936;6.848;2023-01-29T02:34:11;39.60;;;23.17;;
53505;SDS011;39388;50.936;6.848;2023-01-29T02:39:49;40.20;;;23.55;;
53505;SDS011;39388;50.936;6.848;2023-01-29T02:42:35;46.45;;;25.52;;
53505;SDS011;39388;50.936;6.848;2023-01-29T02:45:31;39.58;;;24.30;;
53505;SDS011;39388;50.936;6.848;2023-01-29T02:48:04;44.33;;;24.80;;
53505;SDS011;39388;50.936;6.848;2023-01-29T02:50:42;45.80;;;26.90;;
53505;SDS011;39388;50.936;6.848;2023-01-29T02:53:15;56.28;;;31.27;;
53505;SDS011;39388;50.936;6.848;2023-01-29T02:56:10;54.15;;;29.33;;
53505;SDS011;39388;50.936;6.848;2023-01-29T02:58:49;40.25;;;23.63;;
53505;SDS011;39388;50.936;6.848;2023-01-29T03:01:30;44.22;;;25.77;;
53505;SDS011;39388;50.936;6.848;2023-01-29T03:04:07;39.83;;;24.45;;
53505;SDS011;39388;50.936;6.848;2023-01-29T03:06:57;42.88;;;25.23;;
53505;SDS011;39388;50.936;6.848;2023-01-29T03:09:33;45.00;;;25.40;;
53505;SDS011;39388;50.936;6.848;2023-01-29T03:12:11;44.25;;;25.30;;
53505;SDS011;39388;50.936;6.848;2023-01-29T03:14:57;38.92;;;24.38;;
53505;SDS011;39388;50.936;6.848;2023-01-29T03:18:01;40.65;;;24.23;;
53505;SDS011;39388;50.936;6.848;2023-01-29T03:20:39;42.73;;;25.03;;
53505;SDS011;39388;50.936;6.848;2023-01-29T03:23:20;41.63;;;23.90;;
53505;SDS011;39388;50.936;6.848;2023-01-29T03:25:56;47.47;;;25.27;;
53505;SDS011;39388;50.936;6.848;2023-01-29T03:28:47;42.25;;;24.08;;
53505;SDS011;39388;50.936;6.848;2023-01-29T03:31:36;41.15;;;24.65;;
53505;SDS011;39388;50.936;6.848;2023-01-29T03:34:26;41.67;;;24.48;;
53505;SDS011;39388;50.936;6.848;2023-01-29T03:37:05;43.85;;;24.92;;
53505;SDS011;39388;50.936;6.848;2023-01-29T03:39:40;44.60;;;26.10;;
53505;SDS011;39388;50.936;6.848;2023-01-29T03:47:47;43.27;;;24.97;;
53505;SDS011;39388;50.936;6.848;2023-01-29T03:55:37;41.92;;;24.33;;
53505;SDS011;39388;50.936;6.848;2023-01-29T03:58:28;43.60;;;23.85;;
53505;SDS011;39388;50.936;6.848;2023-01-29T04:01:13;41.78;;;24.05;;
53505;SDS011;39388;50.936;6.848;2023-01-29T04:03:48;40.78;;;24.55;;
53505;SDS011;39388;50.936;6.848;2023-01-29T04:06:54;41.70;;;23.95;;
53505;SDS011;39388;50.936;6.848;2023-01-29T04:09:33;40.70;;;23.98;;
53505;SDS011;39388;50.936;6.848;2023-01-29T04:12:10;40.85;;;23.58;;
53505;SDS011;39388;50.936;6.848;2023-01-29T04:14:43;40.50;;;23.52;;
53505;SDS011;39388;50.936;6.848;2023-01-29T04:17:16;63.83;;;33.53;;
53505;SDS011;39388;50.936;6.848;2023-01-29T04:19:51;38.03;;;23.15;;
53505;SDS011;39388;50.936;6.848;2023-01-29T04:22:23;41.83;;;23.42;;
53505;SDS011;39388;50.936;6.848;2023-01-29T04:25:04;42.50;;;23.90;;
53505;SDS011;39388;50.936;6.848;2023-01-29T04:27:47;43.30;;;23.23;;
53505;SDS011;39388;50.936;6.848;2023-01-29T04:30:31;40.72;;;23.70;;
53505;SDS011;39388;50.936;6.848;2023-01-29T04:35:47;42.90;;;24.65;;
53505;SDS011;39388;50.936;6.848;2023-01-29T04:47:18;45.45;;;24.42;;
53505;SDS011;39388;50.936;6.848;2023-01-29T04:56:09;36.65;;;22.75;;
53505;SDS011;39388;50.936;6.848;2023-01-29T04:58:50;41.13;;;23.02;;
53505;SDS011;39388;50.936;6.848;2023-01-29T05:01:29;41.17;;;24.15;;
53505;SDS011;39388;50.936;6.848;2023-01-29T05:04:03;40.50;;;23.98;;
53505;SDS011;39388;50.936;6.848;2023-01-29T05:06:37;37.53;;;23.10;;
53505;SDS011;39388;50.936;6.848;2023-01-29T05:09:09;38.60;;;23.05;;
53505;SDS011;39388;50.936;6.848;2023-01-29T05:11:43;41.47;;;23.67;;
53505;SDS011;39388;50.936;6.848;2023-01-29T05:14:16;43.25;;;23.80;;
53505;SDS011;39388;50.936;6.848;2023-01-29T05:16:50;39.05;;;24.13;;
53505;SDS011;39388;50.936;6.848;2023-01-29T05:19:22;38.40;;;22.92;;
53505;SDS011;39388;50.936;6.848;2023-01-29T05:21:53;44.75;;;24.67;;
53505;SDS011;39388;50.936;6.848;2023-01-29T05:24:24;41.35;;;24.63;;
53505;SDS011;39388;50.936;6.848;2023-01-29T05:26:55;38.90;;;23.23;;
53505;SDS011;39388;50.936;6.848;2023-01-29T05:29:45;38.45;;;22.83;;
53505;SDS011;39388;50.936;6.848;2023-01-29T05:32:16;42.95;;;24.02;;
53505;SDS011;39388;50.936;6.848;2023-01-29T05:34:46;43.05;;;24.20;;
53505;SDS011;39388;50.936;6.848;2023-01-29T05:37:16;41.10;;;24.02;;
53505;SDS011;39388;50.936;6.848;2023-01-29T05:39:47;39.70;;;23.05;;
53505;SDS011;39388;50.936;6.848;2023-01-29T05:42:17;45.25;;;25.38;;
53505;SDS011;39388;50.936;6.848;2023-01-29T05:44:47;36.03;;;23.48;;
53505;SDS011;39388;50.936;6.848;2023-01-29T05:47:18;45.65;;;24.58;;
53505;SDS011;39388;50.936;6.848;2023-01-29T05:49:49;44.92;;;24.52;;
53505;SDS011;39388;50.936;6.848;2023-01-29T05:52:19;43.50;;;24.50;;
53505;SDS011;39388;50.936;6.848;2023-01-29T05:54:50;41.30;;;23.88;;
53505;SDS011;39388;50.936;6.848;2023-01-29T05:57:20;42.15;;;24.05;;
53505;SDS011;39388;50.936;6.848;2023-01-29T05:59:51;43.90;;;23.88;;
53505;SDS011;39388;50.936;6.848;2023-01-29T06:02:21;43.97;;;23.45;;
53505;SDS011;39388;50.936;6.848;2023-01-29T06:04:51;40.13;;;22.92;;
53505;SDS011;39388;50.936;6.848;2023-01-29T06:07:22;43.58;;;23.23;;
53505;SDS011;39388;50.936;6.848;2023-01-29T06:09:52;41.00;;;23.80;;
53505;SDS011;39388;50.936;6.848;2023-01-29T06:12:23;41.15;;;23.52;;
53505;SDS011;39388;50.936;6.848;2023-01-29T06:14:53;38.15;;;22.92;;
53505;SDS011;39388;50.936;6.848;2023-01-29T06:17:23;40.70;;;24.58;;
53505;SDS011;39388;50.936;6.848;2023-01-29T06:19:54;42.17;;;23.48;;
53505;SDS011;39388;50.936;6.848;2023-01-29T06:22:24;35.85;;;21.70;;
53505;SDS011;39388;50.936;6.848;2023-01-29T06:24:54;42.70;;;24.65;;
53505;SDS011;39388;50.936;6.848;2023-01-29T06:27:25;40.80;;;23.35;;
53505;SDS011;39388;50.936;6.848;2023-01-29T06:29:55;40.08;;;24.17;;
53505;SDS011;39388;50.936;6.848;2023-01-29T06:32:26;42.38;;;23.95;;
53505;SDS011;39388;50.936;6.848;2023-01-29T06:34:56;40.10;;;23.58;;
53505;SDS011;39388;50.936;6.848;2023-01-29T06:37:27;40.65;;;23.83;;
53505;SDS011;39388;50.936;6.848;2023-01-29T06:39:57;40.65;;;23.48;;
53505;SDS011;39388;50.936;6.848;2023-01-29T06:42:27;42.25;;;24.10;;
53505;SDS011;39388;50.936;6.848;2023-01-29T06:44:58;36.25;;;22.13;;
53505;SDS011;39388;50.936;6.848;2023-01-29T06:50:39;41.88;;;25.30;;
53505;SDS011;39388;50.936;6.848;2023-01-29T06:53:10;39.65;;;23.65;;
53505;SDS011;39388;50.936;6.848;2023-01-29T06:55:41;40.00;;;23.20;;
53505;SDS011;39388;50.936;6.848;2023-01-29T06:58:11;43.35;;;24.30;;
53505;SDS011;39388;50.936;6.848;2023-01-29T07:00:41;40.22;;;23.55;;
53505;SDS011;39388;50.936;6.848;2023-01-29T07:03:12;39.42;;;22.52;;
53505;SDS011;39388;50.936;6.848;2023-01-29T07:05:48;40.83;;;23.42;;
53505;SDS011;39388;50.936;6.848;2023-01-29T07:08:19;37.95;;;22.70;;
53505;SDS011;39388;50.936;6.848;2023-01-29T07:10:51;40.88;;;22.98;;
53505;SDS011;39388;50.936;6.848;2023-01-29T07:13:22;38.08;;;22.65;;
53505;SDS011;39388;50.936;6.848;2023-01-29T07:15:52;38.40;;;23.55;;
53505;SDS011;39388;50.936;6.848;2023-01-29T07:18:22;37.67;;;22.33;;
53505;SDS011;39388;50.936;6.848;2023-01-29T07:20:53;39.15;;;23.25;;
53505;SDS011;39388;50.936;6.848;2023-01-29T07:23:23;40.83;;;23.52;;
53505;SDS011;39388;50.936;6.848;2023-01-29T07:25:54;39.90;;;22.05;;
53505;SDS011;39388;50.936;6.848;2023-01-29T07:28:24;39.50;;;23.42;;
53505;SDS011;39388;50.936;6.848;2023-01-29T07:30:55;39.67;;;23.35;;
53505;SDS011;39388;50.936;6.848;2023-01-29T07:33:29;38.70;;;22.88;;
53505;SDS011;39388;50.936;6.848;2023-01-29T07:35:59;41.95;;;23.50;;
53505;SDS011;39388;50.936;6.848;2023-01-29T07:38:30;41.15;;;21.73;;
53505;SDS011;39388;50.936;6.848;2023-01-29T07:41:00;36.17;;;21.75;;
53505;SDS011;39388;50.936;6.848;2023-01-29T07:43:32;37.22;;;21.80;;
53505;SDS011;39388;50.936;6.848;2023-01-29T07:46:03;40.80;;;22.88;;
53505;SDS011;39388;50.936;6.848;2023-01-29T07:48:34;41.47;;;24.05;;
53505;SDS011;39388;50.936;6.848;2023-01-29T07:51:05;38.28;;;23.13;;
53505;SDS011;39388;50.936;6.848;2023-01-29T07:53:35;42.13;;;24.63;;
53505;SDS011;39388;50.936;6.848;2023-01-29T07:56:06;35.53;;;22.67;;
53505;SDS011;39388;50.936;6.848;2023-01-29T07:58:37;43.72;;;25.27;;
53505;SDS011;39388;50.936;6.848;2023-01-29T08:01:07;52.10;;;29.90;;
53505;SDS011;39388;50.936;6.848;2023-01-29T08:03:37;45.35;;;28.60;;
53505;SDS011;39388;50.936;6.848;2023-01-29T08:06:08;41.67;;;24.60;;
53505;SDS011;39388;50.936;6.848;2023-01-29T08:08:39;38.75;;;23.15;;
53505;SDS011;39388;50.936;6.848;2023-01-29T08:11:09;37.67;;;22.35;;
53505;SDS011;39388;50.936;6.848;2023-01-29T08:13:40;37.22;;;22.40;;
53505;SDS011;39388;50.936;6.848;2023-01-29T08:16:10;40.90;;;22.35;;
53505;SDS011;39388;50.936;6.848;2023-01-29T08:18:40;40.65;;;22.73;;
53505;SDS011;39388;50.936;6.848;2023-01-29T08:21:16;40.60;;;24.05;;
53505;SDS011;39388;50.936;6.848;2023-01-29T08:23:47;38.83;;;23.15;;
53505;SDS011;39388;50.936;6.848;2023-01-29T08:26:17;44.47;;;25.80;;
53505;SDS011;39388;50.936;6.848;2023-01-29T08:28:47;43.50;;;24.08;;
53505;SDS011;39388;50.936;6.848;2023-01-29T08:31:18;40.85;;;24.33;;
53505;SDS011;39388;50.936;6.848;2023-01-29T08:33:54;45.45;;;24.77;;
53505;SDS011;39388;50.936;6.848;2023-01-29T08:36:25;37.38;;;22.67;;
53505;SDS011;39388;50.936;6.848;2023-01-29T08:38:55;37.95;;;22.30;;
53505;SDS011;39388;50.936;6.848;2023-01-29T08:41:25;43.15;;;24.05;;
53505;SDS011;39388;50.936;6.848;2023-01-29T08:43:56;40.45;;;23.45;;
53505;SDS011;39388;50.936;6.848;2023-01-29T08:46:26;37.90;;;22.90;;
53505;SDS011;39388;50.936;6.848;2023-01-29T08:48:57;41.25;;;23.63;;
53505;SDS011;39388;50.936;6.848;2023-01-29T08:51:28;36.72;;;22.52;;
53505;SDS011;39388;50.936;6.848;2023-01-29T08:53:58;42.00;;;23.60;;
53505;SDS011;39388;50.936;6.848;2023-01-29T08:56:29;36.28;;;21.15;;
53505;SDS011;39388;50.936;6.848;2023-01-29T08:58:59;37.22;;;21.80;;
53505;SDS011;39388;50.936;6.848;2023-01-29T09:01:29;38.90;;;21.98;;
53505;SDS011;39388;50.936;6.848;2023-01-29T09:04:07;39.38;;;22.63;;
53505;SDS011;39388;50.936;6.848;2023-01-29T09:06:37;35.50;;;20.98;;
53505;SDS011;39388;50.936;6.848;2023-01-29T09:09:08;35.72;;;19.92;;
53505;SDS011;39388;50.936;6.848;2023-01-29T09:11:38;42.35;;;23.98;;
53505;SDS011;39388;50.936;6.848;2023-01-29T09:14:09;37.90;;;21.05;;
53505;SDS011;39388;50.936;6.848;2023-01-29T09:16:41;37.40;;;22.13;;
53505;SDS011;39388;50.936;6.848;2023-01-29T09:19:12;38.38;;;22.10;;
53505;SDS011;39388;50.936;6.848;2023-01-29T09:21:42;37.38;;;20.98;;
53505;SDS011;39388;50.936;6.848;2023-01-29T09:24:20;35.72;;;20.55;;
53505;SDS011;39388;50.936;6.848;2023-01-29T09:29:21;36.70;;;21.92;;
53505;SDS011;39388;50.936;6.848;2023-01-29T09:31:51;44.38;;;23.75;;
53505;SDS011;39388;50.936;6.848;2023-01-29T09:34:22;39.10;;;21.58;;
53505;SDS011;39388;50.936;6.848;2023-01-29T09:36:52;38.92;;;21.90;;
53505;SDS011;39388;50.936;6.848;2023-01-29T09:39:23;40.72;;;22.65;;
53505;SDS011;39388;50.936;6.848;2023-01-29T09:41:58;37.60;;;21.65;;
53505;SDS011;39388;50.936;6.848;2023-01-29T09:47:24;36.65;;;20.50;;
53505;SDS011;39388;50.936;6.848;2023-01-29T09:50:01;38.22;;;21.13;;
53505;SDS011;39388;50.936;6.848;2023-01-29T09:52:38;37.90;;;21.70;;
53505;SDS011;39388;50.936;6.848;2023-01-29T09:55:16;38.33;;;21.35;;
53505;SDS011;39388;50.936;6.848;2023-01-29T10:00:56;35.95;;;19.85;;
53505;SDS011;39388;50.936;6.848;2023-01-29T10:11:48;37.95;;;20.98;;
53505;SDS011;39388;50.936;6.848;2023-01-29T10:20:33;38.70;;;21.35;;
53505;SDS011;39388;50.936;6.848;2023-01-29T10:25:43;36.10;;;20.33;;
53505;SDS011;39388;50.936;6.848;2023-01-29T10:28:28;31.38;;;18.83;;
53505;SDS011;39388;50.936;6.848;2023-01-29T10:34:13;35.88;;;20.65;;
53505;SDS011;39388;50.936;6.848;2023-01-29T10:37:00;41.15;;;22.08;;
53505;SDS011;39388;50.936;6.848;2023-01-29T10:39:35;37.67;;;20.63;;
53505;SDS011;39388;50.936;6.848;2023-01-29T10:42:21;37.70;;;20.38;;
53505;SDS011;39388;50.936;6.848;2023-01-29T10:50:49;36.17;;;21.35;;
53505;SDS011;39388;50.936;6.848;2023-01-29T10:58:53;38.05;;;21.08;;
53505;SDS011;39388;50.936;6.848;2023-01-29T11:01:26;36.00;;;19.70;;
53505;SDS011;39388;50.936;6.848;2023-01-29T11:04:00;37.33;;;21.65;;
53505;SDS011;39388;50.936;6.848;2023-01-29T11:06:33;39.15;;;21.13;;
53505;SDS011;39388;50.936;6.848;2023-01-29T11:17:15;36.75;;;21.10;;
53505;SDS011;39388;50.936;6.848;2023-01-29T11:19:47;36.40;;;21.23;;
53505;SDS011;39388;50.936;6.848;2023-01-29T11:22:21;40.25;;;21.20;;
53505;SDS011;39388;50.936;6.848;2023-01-29T11:25:15;36.95;;;21.90;;
53505;SDS011;39388;50.936;6.848;2023-01-29T11:27:56;40.20;;;21.58;;
53505;SDS011;39388;50.936;6.848;2023-01-29T11:30:30;35.63;;;20.55;;
53505;SDS011;39388;50.936;6.848;2023-01-29T11:35:41;40.92;;;22.33;;
53505;SDS011;39388;50.936;6.848;2023-01-29T11:40:45;43.45;;;23.35;;
53505;SDS011;39388;50.936;6.848;2023-01-29T11:43:28;41.42;;;23.35;;
53505;SDS011;39388;50.936;6.848;2023-01-29T11:46:00;38.55;;;22.67;;
53505;SDS011;39388;50.936;6.848;2023-01-29T11:48:44;37.45;;;20.05;;
53505;SDS011;39388;50.936;6.848;2023-01-29T11:51:20;37.17;;;21.52;;
53505;SDS011;39388;50.936;6.848;2023-01-29T11:53:55;35.85;;;20.38;;
53505;SDS011;39388;50.936;6.848;2023-01-29T11:56:41;42.05;;;23.52;;
53505;SDS011;39388;50.936;6.848;2023-01-29T12:04:53;39.38;;;21.55;;
53505;SDS011;39388;50.936;6.848;2023-01-29T12:07:27;41.72;;;25.25;;
53505;SDS011;39388;50.936;6.848;2023-01-29T12:09:58;37.13;;;20.88;;
53505;SDS011;39388;50.936;6.848;2023-01-29T12:12:30;38.65;;;20.33;;
53505;SDS011;39388;50.936;6.848;2023-01-29T12:17:37;40.38;;;21.73;;
53505;SDS011;39388;50.936;6.848;2023-01-29T12:20:21;41.22;;;21.42;;
53505;SDS011;39388;50.936;6.848;2023-01-29T12:23:00;40.58;;;22.80;;
53505;SDS011;39388;50.936;6.848;2023-01-29T12:26:01;39.88;;;22.83;;
53505;SDS011;39388;50.936;6.848;2023-01-29T12:28:40;39.00;;;22.42;;
53505;SDS011;39388;50.936;6.848;2023-01-29T12:34:36;40.05;;;22.13;;
53505;SDS011;39388;50.936;6.848;2023-01-29T12:37:43;34.95;;;21.42;;
53505;SDS011;39388;50.936;6.848;2023-01-29T12:40:13;36.65;;;21.88;;
53505;SDS011;39388;50.936;6.848;2023-01-29T12:42:47;44.33;;;23.50;;
53505;SDS011;39388;50.936;6.848;2023-01-29T12:45:21;41.05;;;22.77;;
53505;SDS011;39388;50.936;6.848;2023-01-29T12:47:55;34.85;;;19.55;;
53505;SDS011;39388;50.936;6.848;2023-01-29T12:50:34;36.95;;;20.02;;
53505;SDS011;39388;50.936;6.848;2023-01-29T12:53:12;33.03;;;18.80;;
53505;SDS011;39388;50.936;6.848;2023-01-29T12:55:52;36.15;;;20.70;;
53505;SDS011;39388;50.936;6.848;2023-01-29T12:58:34;32.88;;;18.58;;
53505;SDS011;39388;50.936;6.848;2023-01-29T13:01:13;35.13;;;20.83;;
53505;SDS011;39388;50.936;6.848;2023-01-29T13:06:27;40.67;;;21.98;;
53505;SDS011;39388;50.936;6.848;2023-01-29T13:09:03;36.60;;;20.70;;
53505;SDS011;39388;50.936;6.848;2023-01-29T13:11:42;36.05;;;20.50;;
53505;SDS011;39388;50.936;6.848;2023-01-29T13:17:08;38.63;;;20.23;;
53505;SDS011;39388;50.936;6.848;2023-01-29T13:19:45;39.28;;;20.27;;
53505;SDS011;39388;50.936;6.848;2023-01-29T13:22:24;38.60;;;22.33;;
53505;SDS011;39388;50.936;6.848;2023-01-29T13:24:57;32.47;;;17.98;;
53505;SDS011;39388;50.936;6.848;2023-01-29T13:27:29;36.28;;;20.67;;
53505;SDS011;39388;50.936;6.848;2023-01-29T13:32:32;36.15;;;20.17;;
53505;SDS011;39388;50.936;6.848;2023-01-29T13:37:51;29.25;;;17.42;;
53505;SDS011;39388;50.936;6.848;2023-01-29T13:40:25;25.15;;;14.70;;
53505;SDS011;39388;50.936;6.848;2023-01-29T13:42:58;22.60;;;14.48;;
53505;SDS011;39388;50.936;6.848;2023-01-29T13:45:35;25.50;;;14.40;;
53505;SDS011;39388;50.936;6.848;2023-01-29T13:48:19;19.00;;;12.40;;
53505;SDS011;39388;50.936;6.848;2023-01-29T13:50:54;19.55;;;11.95;;
53505;SDS011;39388;50.936;6.848;2023-01-29T13:53:32;19.92;;;12.07;;
53505;SDS011;39388;50.936;6.848;2023-01-29T13:59:04;18.05;;;10.65;;
53505;SDS011;39388;50.936;6.848;2023-01-29T14:06:54;18.15;;;11.38;;
53505;SDS011;39388;50.936;6.848;2023-01-29T14:17:24;18.55;;;11.20;;
53505;SDS011;39388;50.936;6.848;2023-01-29T14:20:01;16.35;;;10.90;;
53505;SDS011;39388;50.936;6.848;2023-01-29T14:22:52;13.23;;;8.23;;
53505;SDS011;39388;50.936;6.848;2023-01-29T14:25:36;25.60;;;13.80;;
53505;SDS011;39388;50.936;6.848;2023-01-29T14:28:13;14.75;;;9.45;;
53505;SDS011;39388;50.936;6.848;2023-01-29T14:30:48;15.60;;;8.25;;
53505;SDS011;39388;50.936;6.848;2023-01-29T14:33:22;8.02;;;6.25;;
53505;SDS011;39388;50.936;6.848;2023-01-29T14:36:13;20.10;;;10.88;;
53505;SDS011;39388;50.936;6.848;2023-01-29T14:38:48;8.43;;;5.15;;
53505;SDS011;39388;50.936;6.848;2023-01-29T14:44:46;6.03;;;4.80;;
53505;SDS011;39388;50.936;6.848;2023-01-29T14:47:17;7.13;;;4.50;;
53505;SDS011;39388;50.936;6.848;2023-01-29T14:55:47;6.78;;;4.78;;
53505;SDS011;39388;50.936;6.848;2023-01-29T14:58:26;6.13;;;4.85;;
53505;SDS011;39388;50.936;6.848;2023-01-29T15:01:21;6.43;;;4.88;;
53505;SDS011;39388;50.936;6.848;2023-01-29T15:06:58;7.03;;;4.65;;
53505;SDS011;39388;50.936;6.848;2023-01-29T15:15:04;7.03;;;5.20;;
53505;SDS011;39388;50.936;6.848;2023-01-29T15:26:03;6.50;;;5.00;;
53505;SDS011;39388;50.936;6.848;2023-01-29T15:28:36;6.57;;;4.88;;
53505;SDS011;39388;50.936;6.848;2023-01-29T15:31:11;7.25;;;5.47;;
53505;SDS011;39388;50.936;6.848;2023-01-29T15:33:47;6.75;;;4.70;;
53505;SDS011;39388;50.936;6.848;2023-01-29T15:36:24;155.95;;;61.88;;
53505;SDS011;39388;50.936;6.848;2023-01-29T15:41:42;8.20;;;5.55;;
53505;SDS011;39388;50.936;6.848;2023-01-29T15:44:14;12.85;;;8.05;;
53505;SDS011;39388;50.936;6.848;2023-01-29T15:46:59;18.33;;;10.15;;
53505;SDS011;39388;50.936;6.848;2023-01-29T15:49:34;8.07;;;5.30;;
53505;SDS011;39388;50.936;6.848;2023-01-29T15:52:06;9.38;;;5.97;;
53505;SDS011;39388;50.936;6.848;2023-01-29T15:54:44;7.40;;;5.35;;
53505;SDS011;39388;50.936;6.848;2023-01-29T15:57:20;7.03;;;5.35;;
53505;SDS011;39388;50.936;6.848;2023-01-29T15:59:55;7.40;;;5.35;;
53505;SDS011;39388;50.936;6.848;2023-01-29T16:02:35;5.97;;;5.30;;
53505;SDS011;39388;50.936;6.848;2023-01-29T16:05:12;9.13;;;5.80;;
53505;SDS011;39388;50.936;6.848;2023-01-29T16:07:45;7.38;;;5.53;;
53505;SDS011;39388;50.936;6.848;2023-01-29T16:10:16;8.30;;;5.65;;
53505;SDS011;39388;50.936;6.848;2023-01-29T16:12:50;8.35;;;6.38;;
53505;SDS011;39388;50.936;6.848;2023-01-29T16:18:19;8.45;;;5.93;;
53505;SDS011;39388;50.936;6.848;2023-01-29T16:23:24;8.18;;;6.10;;
53505;SDS011;39388;50.936;6.848;2023-01-29T16:26:00;8.15;;;6.22;;
53505;SDS011;39388;50.936;6.848;2023-01-29T16:28:41;7.05;;;5.85;;
53505;SDS011;39388;50.936;6.848;2023-01-29T16:31:19;9.05;;;6.22;;
53505;SDS011;39388;50.936;6.848;2023-01-29T16:33:52;7.65;;;6.20;;
53505;SDS011;39388;50.936;6.848;2023-01-29T16:36:24;10.05;;;6.30;;
53505;SDS011;39388;50.936;6.848;2023-01-29T16:38:57;7.43;;;6.00;;
53505;SDS011;39388;50.936;6.848;2023-01-29T16:41:30;11.10;;;6.97;;
53505;SDS011;39388;50.936;6.848;2023-01-29T16:46:44;11.02;;;7.30;;
53505;SDS011;39388;50.936;6.848;2023-01-29T16:50:00;8.93;;;6.82;;
53505;SDS011;39388;50.936;6.848;2023-01-29T16:54:52;11.15;;;7.53;;
53505;SDS011;39388;50.936;6.848;2023-01-29T16:57:30;10.85;;;8.48;;
53505;SDS011;39388;50.936;6.848;2023-01-29T17:00:02;10.25;;;7.72;;
53505;SDS011;39388;50.936;6.848;2023-01-29T17:02:37;11.45;;;8.23;;
53505;SDS011;39388;50.936;6.848;2023-01-29T17:05:09;12.27;;;8.50;;
53505;SDS011;39388;50.936;6.848;2023-01-29T17:07:50;12.93;;;8.45;;
53505;SDS011;39388;50.936;6.848;2023-01-29T17:10:20;14.63;;;8.57;;
53505;SDS011;39388;50.936;6.848;2023-01-29T17:13:04;16.27;;;8.32;;
53505;SDS011;39388;50.936;6.848;2023-01-29T17:18:18;12.77;;;8.52;;
53505;SDS011;39388;50.936;6.848;2023-01-29T17:20:49;10.32;;;8.05;;
53505;SDS011;39388;50.936;6.848;2023-01-29T17:23:21;10.13;;;7.45;;
53505;SDS011;39388;50.936;6.848;2023-01-29T17:25:52;10.98;;;7.90;;
53505;SDS011;39388;50.936;6.848;2023-01-29T17:28:22;11.18;;;8.35;;
53505;SDS011;39388;50.936;6.848;2023-01-29T17:30:53;9.98;;;7.63;;
53505;SDS011;39388;50.936;6.848;2023-01-29T17:33:23;13.00;;;7.88;;
53505;SDS011;39388;50.936;6.848;2023-01-29T17:35:55;10.98;;;7.78;;
53505;SDS011;39388;50.936;6.848;2023-01-29T17:38:25;10.80;;;7.50;;
53505;SDS011;39388;50.936;6.848;2023-01-29T17:41:04;9.88;;;7.72;;
53505;SDS011;39388;50.936;6.848;2023-01-29T17:43:38;12.37;;;8.27;;
53505;SDS011;39388;50.936;6.848;2023-01-29T17:46:10;11.10;;;7.45;;
53505;SDS011;39388;50.936;6.848;2023-01-29T17:48:43;10.18;;;7.35;;
53505;SDS011;39388;50.936;6.848;2023-01-29T17:51:15;10.55;;;7.88;;
53505;SDS011;39388;50.936;6.848;2023-01-29T17:53:46;12.52;;;8.85;;
53505;SDS011;39388;50.936;6.848;2023-01-29T17:56:22;12.45;;;8.73;;
53505;SDS011;39388;50.936;6.848;2023-01-29T17:58:56;12.20;;;8.77;;
53505;SDS011;39388;50.936;6.848;2023-01-29T18:01:26;12.85;;;8.77;;
53505;SDS011;39388;50.936;6.848;2023-01-29T18:03:57;11.55;;;8.60;;
53505;SDS011;39388;50.936;6.848;2023-01-29T18:06:27;14.10;;;8.77;;
53505;SDS011;39388;50.936;6.848;2023-01-29T18:08:58;14.65;;;10.10;;
53505;SDS011;39388;50.936;6.848;2023-01-29T18:11:29;16.33;;;11.52;;
53505;SDS011;39388;50.936;6.848;2023-01-29T18:14:00;13.82;;;9.00;;